createdAt,value
2022-08-18T00:00:49.106Z,36.70
2022-08-18T00:01:49.127Z,36.20
2022-08-18T00:03:00.925Z,39.10
2022-08-18T00:03:55.484Z,40.50
2022-08-18T00:04:49.880Z,34.70
2022-08-18T00:05:49.092Z,37.30
2022-08-18T00:06:49.090Z,35.80
2022-08-18T00:07:49.093Z,40.30
2022-08-18T00:08:49.090Z,41.70
2022-08-18T00:09:49.090Z,38.80
2022-08-18T00:10:49.096Z,28.90
2022-08-18T00:11:49.096Z,28.50
2022-08-18T00:12:49.102Z,28.20
2022-08-18T00:13:49.103Z,29.70
2022-08-18T00:14:49.110Z,33.40
2022-08-18T00:15:49.306Z,33.80
2022-08-18T00:16:49.107Z,32.20
2022-08-18T00:17:49.104Z,28.90
2022-08-18T00:18:49.108Z,25.00
2022-08-18T00:19:49.110Z,25.40
2022-08-18T00:20:49.113Z,28.10
2022-08-18T00:21:49.112Z,31.20
2022-08-18T00:22:49.133Z,33.20
2022-08-18T00:23:49.116Z,33.30
2022-08-18T00:24:49.587Z,32.20
2022-08-18T00:25:49.118Z,37.60
2022-08-18T00:26:49.123Z,36.00
2022-08-18T00:27:49.138Z,38.00
2022-08-18T00:28:49.130Z,32.70
2022-08-18T00:29:49.125Z,34.50
2022-08-18T00:30:49.130Z,33.40
2022-08-18T00:31:49.123Z,34.10
2022-08-18T00:32:49.145Z,36.90
2022-08-18T00:33:49.131Z,34.90
2022-08-18T00:34:49.134Z,31.90
2022-08-18T00:35:49.131Z,32.40
2022-08-18T00:36:49.135Z,34.30
2022-08-18T00:37:49.136Z,35.50
2022-08-18T00:38:49.139Z,35.50
2022-08-18T00:39:49.206Z,36.10
2022-08-18T00:40:49.139Z,36.50
2022-08-18T00:41:49.144Z,37.10
2022-08-18T00:42:49.147Z,39.20
2022-08-18T00:43:49.145Z,37.20
2022-08-18T00:44:49.147Z,37.80
2022-08-18T00:45:49.145Z,37.00
2022-08-18T00:46:49.149Z,38.20
2022-08-18T00:47:49.148Z,38.70
2022-08-18T00:48:49.444Z,37.70
2022-08-18T00:49:49.154Z,36.60
2022-08-18T00:50:49.160Z,36.00
2022-08-18T00:51:49.156Z,36.20
2022-08-18T00:52:49.163Z,33.50
2022-08-18T00:53:49.157Z,38.90
2022-08-18T00:54:49.196Z,36.10
2022-08-18T00:55:51.367Z,34.70
2022-08-18T00:56:49.167Z,32.20
2022-08-18T00:57:49.166Z,33.30
2022-08-18T00:58:49.168Z,32.70
2022-08-18T00:59:49.168Z,32.60
2022-08-18T01:00:49.253Z,33.00
2022-08-18T01:01:49.170Z,32.80
2022-08-18T01:02:49.170Z,33.20
2022-08-18T01:03:49.174Z,32.10
2022-08-18T01:04:49.179Z,33.10
2022-08-18T01:05:49.175Z,33.30
2022-08-18T01:06:49.179Z,33.60
2022-08-18T01:07:49.179Z,35.60
2022-08-18T01:08:49.184Z,35.60
2022-08-18T01:09:49.177Z,35.70
2022-08-18T01:10:49.180Z,37.00
2022-08-18T01:11:49.181Z,37.60
2022-08-18T01:12:49.190Z,33.00
2022-08-18T01:13:49.185Z,37.10
2022-08-18T01:14:49.190Z,37.90
2022-08-18T01:15:49.189Z,34.90
2022-08-18T01:16:53.146Z,38.10
2022-08-18T01:17:49.191Z,36.80
2022-08-18T01:18:49.198Z,35.60
2022-08-18T01:19:49.196Z,29.80
2022-08-18T01:20:49.196Z,31.40
2022-08-18T01:21:49.195Z,27.80
2022-08-18T01:22:49.203Z,27.50
2022-08-18T01:23:49.198Z,28.30
2022-08-18T01:24:49.207Z,27.10
2022-08-18T01:25:49.205Z,26.70
2022-08-18T01:26:49.206Z,29.80
2022-08-18T01:27:49.207Z,29.80
2022-08-18T01:28:49.210Z,35.00
2022-08-18T01:29:49.206Z,35.60
2022-08-18T01:30:49.208Z,35.80
2022-08-18T01:31:54.712Z,36.70
2022-08-18T01:32:49.211Z,31.40
2022-08-18T01:33:49.208Z,31.70
2022-08-18T01:34:49.214Z,32.10
2022-08-18T01:35:49.213Z,31.10
2022-08-18T01:36:49.217Z,28.50
2022-08-18T01:37:49.217Z,25.40
2022-08-18T01:38:49.219Z,23.70
2022-08-18T01:41:17.512Z,23.60
2022-08-18T01:41:21.106Z,22.20
2022-08-18T01:41:49.237Z,22.00
2022-08-18T01:42:49.220Z,22.50
2022-08-18T01:43:49.727Z,25.70
2022-08-18T01:44:49.231Z,32.60
2022-08-18T01:45:49.225Z,33.90
2022-08-18T01:46:49.228Z,37.00
2022-08-18T01:47:49.226Z,34.80
2022-08-18T01:48:49.231Z,37.60
2022-08-18T01:49:49.234Z,35.40
2022-08-18T01:50:49.264Z,39.00
2022-08-18T01:51:49.236Z,32.80
2022-08-18T01:52:49.243Z,32.90
2022-08-18T01:53:49.235Z,30.10
2022-08-18T01:54:49.238Z,26.80
2022-08-18T01:55:49.237Z,29.10
2022-08-18T01:56:49.247Z,30.30
2022-08-18T01:57:49.499Z,31.20
2022-08-18T01:58:49.242Z,28.40
2022-08-18T01:59:49.243Z,29.50
2022-08-18T02:00:49.246Z,29.70
2022-08-18T02:01:53.128Z,32.70
2022-08-18T02:02:58.066Z,34.80
2022-08-18T02:03:49.249Z,37.60
2022-08-18T02:04:49.251Z,36.20
2022-08-18T02:05:49.248Z,37.20
2022-08-18T02:06:49.255Z,39.10
2022-08-18T02:07:49.270Z,34.80
2022-08-18T02:08:53.457Z,37.00
2022-08-18T02:09:51.131Z,37.90
2022-08-18T02:10:49.257Z,37.90
2022-08-18T02:11:49.256Z,38.20
2022-08-18T02:12:49.260Z,36.90
2022-08-18T02:13:49.263Z,36.60
2022-08-18T02:14:49.260Z,35.40
2022-08-18T02:15:49.262Z,34.40
2022-08-18T02:16:49.263Z,34.20
2022-08-18T02:17:49.267Z,33.60
2022-08-18T02:18:49.268Z,33.80
2022-08-18T02:19:49.265Z,34.20
2022-08-18T02:20:49.320Z,35.20
2022-08-18T02:21:49.268Z,33.90
2022-08-18T02:22:49.269Z,32.10
2022-08-18T02:23:53.717Z,33.10
2022-08-18T02:24:49.279Z,34.50
2022-08-18T02:25:49.279Z,35.10
2022-08-18T02:26:49.276Z,34.60
2022-08-18T02:27:49.407Z,34.30
2022-08-18T02:28:49.276Z,34.70
2022-08-18T02:29:49.279Z,34.90
2022-08-18T02:30:49.287Z,35.40
2022-08-18T02:31:49.278Z,35.00
2022-08-18T02:32:49.280Z,35.00
2022-08-18T02:33:52.245Z,36.40
2022-08-18T02:34:49.284Z,35.70
2022-08-18T02:35:49.288Z,35.20
2022-08-18T02:36:49.291Z,38.20
2022-08-18T02:37:49.361Z,41.80
2022-08-18T02:38:54.607Z,38.50
2022-08-18T02:39:49.338Z,36.50
2022-08-18T02:40:49.291Z,36.70
2022-08-18T02:41:49.295Z,37.20
2022-08-18T02:42:49.294Z,37.90
2022-08-18T02:43:49.293Z,37.80
2022-08-18T02:44:49.295Z,37.80
2022-08-18T02:45:49.293Z,39.50
2022-08-18T02:46:49.296Z,39.90
2022-08-18T02:47:49.303Z,38.90
2022-08-18T02:48:49.297Z,40.30
2022-08-18T02:49:49.298Z,42.00
2022-08-18T02:50:49.304Z,42.70
2022-08-18T02:51:49.302Z,44.70
2022-08-18T02:52:49.307Z,43.50
2022-08-18T02:53:49.306Z,39.80
2022-08-18T02:54:49.306Z,38.90
2022-08-18T02:55:49.312Z,37.10
2022-08-18T02:56:49.313Z,39.90
2022-08-18T02:57:49.308Z,41.00
2022-08-18T02:58:49.316Z,40.60
2022-08-18T02:59:49.312Z,39.90
2022-08-18T03:00:49.317Z,42.30
2022-08-18T03:01:49.340Z,43.10
2022-08-18T03:02:49.317Z,41.50
2022-08-18T03:03:49.316Z,41.40
2022-08-18T03:04:49.326Z,40.50
2022-08-18T03:05:49.320Z,42.80
2022-08-18T03:06:49.322Z,43.80
2022-08-18T03:07:49.324Z,43.60
2022-08-18T03:08:49.327Z,43.20
2022-08-18T03:09:49.325Z,43.00
2022-08-18T03:10:49.329Z,46.30
2022-08-18T03:11:49.332Z,47.00
2022-08-18T03:12:49.329Z,46.90
2022-08-18T03:13:49.330Z,48.80
2022-08-18T03:14:49.329Z,47.30
2022-08-18T03:15:53.356Z,50.80
2022-08-18T03:16:54.424Z,47.70
2022-08-18T03:17:49.333Z,48.20
2022-08-18T03:18:49.338Z,54.00
2022-08-18T03:19:49.337Z,53.40
2022-08-18T03:20:49.342Z,52.50
2022-08-18T03:21:49.351Z,54.30
2022-08-18T03:22:49.343Z,56.00
2022-08-18T03:24:00.334Z,54.70
2022-08-18T03:24:49.351Z,58.90
2022-08-18T03:25:49.350Z,56.90
2022-08-18T03:26:49.346Z,59.20
2022-08-18T03:27:49.347Z,62.30
2022-08-18T03:28:49.356Z,64.00
2022-08-18T03:29:49.352Z,64.90
2022-08-18T03:30:49.353Z,64.20
2022-08-18T03:31:49.356Z,64.00
2022-08-18T03:32:49.359Z,64.80
2022-08-18T03:33:49.355Z,62.90
2022-08-18T03:34:49.360Z,65.10
2022-08-18T03:35:49.360Z,66.10
2022-08-18T03:36:49.367Z,65.60
2022-08-18T03:37:49.363Z,67.50
2022-08-18T03:38:52.484Z,66.60
2022-08-18T03:39:49.395Z,67.90
2022-08-18T03:40:49.367Z,67.10
2022-08-18T03:41:58.838Z,66.70
2022-08-18T03:42:49.367Z,65.50
2022-08-18T03:43:51.246Z,67.40
2022-08-18T03:44:49.368Z,65.90
2022-08-18T03:45:49.370Z,65.30
2022-08-18T03:46:49.380Z,65.80
2022-08-18T03:47:49.384Z,64.20
2022-08-18T03:48:49.375Z,66.80
2022-08-18T03:49:49.377Z,67.70
2022-08-18T03:50:49.377Z,66.20
2022-08-18T03:51:49.379Z,64.40
2022-08-18T03:52:49.386Z,64.00
2022-08-18T03:53:49.382Z,64.60
2022-08-18T03:54:49.382Z,64.60
2022-08-18T03:55:49.386Z,64.00
2022-08-18T03:56:49.402Z,64.40
2022-08-18T03:57:49.458Z,65.00
2022-08-18T03:58:49.387Z,62.70
2022-08-18T03:59:49.389Z,64.70
2022-08-18T04:00:49.393Z,63.90
2022-08-18T04:01:49.457Z,64.00
2022-08-18T04:02:49.401Z,63.50
2022-08-18T04:03:49.397Z,65.60
2022-08-18T04:04:49.396Z,61.70
2022-08-18T04:05:49.403Z,62.60
2022-08-18T04:06:49.399Z,64.40
2022-08-18T04:07:49.517Z,65.80
2022-08-18T04:08:49.402Z,62.90
2022-08-18T04:09:49.407Z,61.50
2022-08-18T04:10:49.407Z,63.30
2022-08-18T04:11:49.599Z,62.30
2022-08-18T04:12:49.412Z,59.30
2022-08-18T04:13:49.410Z,58.20
2022-08-18T04:14:49.793Z,57.00
2022-08-18T04:15:49.413Z,55.10
2022-08-18T04:16:49.553Z,53.80
2022-08-18T04:17:56.329Z,53.80
2022-08-18T04:18:49.415Z,54.50
2022-08-18T04:19:49.418Z,54.80
2022-08-18T04:20:54.639Z,53.90
2022-08-18T04:21:49.421Z,53.10
2022-08-18T04:22:49.420Z,54.70
2022-08-18T04:23:49.423Z,52.90
2022-08-18T04:24:49.683Z,53.00
2022-08-18T04:25:49.430Z,53.70
2022-08-18T04:26:49.433Z,54.60
2022-08-18T04:27:49.431Z,52.60
2022-08-18T04:28:49.430Z,54.70
2022-08-18T04:29:49.433Z,55.00
2022-08-18T04:30:49.433Z,55.10
2022-08-18T04:31:49.492Z,53.50
2022-08-18T04:32:49.434Z,53.80
2022-08-18T04:33:49.438Z,52.10
2022-08-18T04:34:49.437Z,53.20
2022-08-18T04:35:49.442Z,54.50
2022-08-18T04:36:49.442Z,54.20
2022-08-18T04:37:49.619Z,53.70
2022-08-18T04:38:49.450Z,53.80
2022-08-18T04:39:49.506Z,50.90
2022-08-18T04:40:49.448Z,52.30
2022-08-18T04:41:49.450Z,50.80
2022-08-18T04:42:49.450Z,48.90
2022-08-18T04:43:49.454Z,49.30
2022-08-18T04:44:49.452Z,47.50
2022-08-18T04:45:49.454Z,47.70
2022-08-18T04:46:49.460Z,47.00
2022-08-18T04:47:49.464Z,45.00
2022-08-18T04:48:49.462Z,44.80
2022-08-18T04:49:49.462Z,43.70
2022-08-18T04:50:49.462Z,45.10
2022-08-18T04:52:30.771Z,43.00
2022-08-18T04:52:49.468Z,42.90
2022-08-18T04:53:49.467Z,44.60
2022-08-18T04:54:49.465Z,44.40
2022-08-18T04:55:49.471Z,43.00
2022-08-18T04:56:49.480Z,43.20
2022-08-18T04:57:49.474Z,40.20
2022-08-18T04:58:49.473Z,41.80
2022-08-18T04:59:49.476Z,41.80
2022-08-18T05:00:49.499Z,42.40
2022-08-18T05:01:49.483Z,41.50
2022-08-18T05:02:49.485Z,43.70
2022-08-18T05:03:50.331Z,38.60
2022-08-18T05:04:49.483Z,39.30
2022-08-18T05:05:49.489Z,42.60
2022-08-18T05:06:49.505Z,41.10
2022-08-18T05:07:49.490Z,41.00
2022-08-18T05:08:49.490Z,41.60
2022-08-18T05:09:49.497Z,42.40
2022-08-18T05:10:49.495Z,41.60
2022-08-18T05:11:49.499Z,42.50
2022-08-18T05:12:49.498Z,41.60
2022-08-18T05:13:49.500Z,40.70
2022-08-18T05:14:49.501Z,40.10
2022-08-18T05:16:09.476Z,36.90
2022-08-18T05:16:49.609Z,38.20
2022-08-18T05:17:50.852Z,39.90
2022-08-18T05:18:49.526Z,39.30
2022-08-18T05:19:49.736Z,40.80
2022-08-18T05:20:49.511Z,41.30
2022-08-18T05:21:50.609Z,42.30
2022-08-18T05:22:49.518Z,41.80
2022-08-18T05:23:49.527Z,41.20
2022-08-18T05:24:49.517Z,41.20
2022-08-18T05:25:49.521Z,41.20
2022-08-18T05:26:49.518Z,40.70
2022-08-18T05:27:49.523Z,36.00
2022-08-18T05:28:49.523Z,39.20
2022-08-18T05:29:51.626Z,38.40
2022-08-18T05:30:49.526Z,38.80
2022-08-18T05:31:49.531Z,38.80
2022-08-18T05:32:50.445Z,35.40
2022-08-18T05:33:49.535Z,36.70
2022-08-18T05:34:49.534Z,41.30
2022-08-18T05:35:49.539Z,39.00
2022-08-18T05:36:49.536Z,37.70
2022-08-18T05:37:49.550Z,37.80
2022-08-18T05:38:49.542Z,37.80
2022-08-18T05:39:49.596Z,38.10
2022-08-18T05:40:49.545Z,38.50
2022-08-18T05:41:49.549Z,38.60
2022-08-18T05:42:49.549Z,42.10
2022-08-18T05:43:51.877Z,41.00
2022-08-18T05:44:49.558Z,42.30
2022-08-18T05:45:49.559Z,41.40
2022-08-18T05:46:49.558Z,41.60
2022-08-18T05:47:49.606Z,41.20
2022-08-18T05:48:49.559Z,38.40
2022-08-18T05:49:49.562Z,40.10
2022-08-18T05:50:49.564Z,36.70
2022-08-18T05:51:49.567Z,38.40
2022-08-18T05:52:49.566Z,40.20
2022-08-18T05:53:49.571Z,42.00
2022-08-18T05:54:49.575Z,39.50
2022-08-18T05:55:49.573Z,40.70
2022-08-18T05:56:49.576Z,42.80
2022-08-18T05:57:49.588Z,40.70
2022-08-18T05:58:49.582Z,40.10
2022-08-18T05:59:49.583Z,40.50
2022-08-18T06:00:49.583Z,42.10
2022-08-18T06:01:49.589Z,41.80
2022-08-18T06:02:49.671Z,43.30
2022-08-18T06:03:49.595Z,42.80
2022-08-18T06:04:49.590Z,43.20
2022-08-18T06:05:49.592Z,45.20
2022-08-18T06:06:49.593Z,42.70
2022-08-18T06:07:49.598Z,41.30
2022-08-18T06:08:49.596Z,42.10
2022-08-18T06:09:49.597Z,43.50
2022-08-18T06:10:49.599Z,44.50
2022-08-18T06:11:49.603Z,43.00
2022-08-18T06:12:49.604Z,43.10
2022-08-18T06:13:49.609Z,43.60
2022-08-18T06:14:49.607Z,43.20
2022-08-18T06:15:49.814Z,45.70
2022-08-18T06:16:49.613Z,44.60
2022-08-18T06:17:49.694Z,46.40
2022-08-18T06:18:49.617Z,46.70
2022-08-18T06:19:49.616Z,45.50
2022-08-18T06:20:49.621Z,46.10
2022-08-18T06:21:49.624Z,44.50
2022-08-18T06:22:53.514Z,46.30
2022-08-18T06:23:49.627Z,44.50
2022-08-18T06:24:49.627Z,43.30
2022-08-18T06:25:49.627Z,42.70
2022-08-18T06:26:49.630Z,43.00
2022-08-18T06:27:49.633Z,43.30
2022-08-18T06:28:49.634Z,44.30
2022-08-18T06:29:49.636Z,47.20
2022-08-18T06:30:49.637Z,44.40
2022-08-18T06:31:49.640Z,46.50
2022-08-18T06:32:49.643Z,44.10
2022-08-18T06:33:49.642Z,46.20
2022-08-18T06:34:49.645Z,46.00
2022-08-18T06:35:49.650Z,44.20
2022-08-18T06:36:49.650Z,46.70
2022-08-18T06:37:49.653Z,44.00
2022-08-18T06:38:49.653Z,44.00
2022-08-18T06:39:49.787Z,46.30
2022-08-18T06:40:49.656Z,45.70
2022-08-18T06:41:49.679Z,46.30
2022-08-18T06:42:49.661Z,45.00
2022-08-18T06:43:49.668Z,44.20
2022-08-18T06:44:49.671Z,45.90
2022-08-18T06:45:49.676Z,45.70
2022-08-18T06:46:49.668Z,45.70
2022-08-18T06:47:49.679Z,42.80
2022-08-18T06:48:49.678Z,45.10
2022-08-18T06:49:49.677Z,44.40
2022-08-18T06:50:49.678Z,44.50
2022-08-18T06:51:49.684Z,45.50
2022-08-18T06:52:49.681Z,44.10
2022-08-18T06:53:49.685Z,44.40
2022-08-18T06:54:51.341Z,42.20
2022-08-18T06:55:49.693Z,44.90
2022-08-18T06:56:49.688Z,43.90
2022-08-18T06:57:49.693Z,43.90
2022-08-18T06:58:53.110Z,43.60
2022-08-18T06:59:49.694Z,44.90
2022-08-18T07:00:49.733Z,42.40
2022-08-18T07:01:49.701Z,43.30
2022-08-18T07:02:49.701Z,42.40
2022-08-18T07:03:49.703Z,42.70
2022-08-18T07:04:49.705Z,46.30
2022-08-18T07:05:49.707Z,47.20
2022-08-18T07:06:49.710Z,47.30
2022-08-18T07:07:49.712Z,43.50
2022-08-18T07:08:49.712Z,42.50
2022-08-18T07:09:49.712Z,42.40
2022-08-18T07:10:49.715Z,43.10
2022-08-18T07:11:49.722Z,44.20
2022-08-18T07:12:49.719Z,43.90
2022-08-18T07:14:03.603Z,44.10
2022-08-18T07:14:49.726Z,43.80
2022-08-18T07:15:50.179Z,43.10
2022-08-18T07:17:04.858Z,43.60
2022-08-18T07:17:49.730Z,43.20
2022-08-18T07:18:49.737Z,42.70
2022-08-18T07:19:49.737Z,44.00
2022-08-18T07:20:49.736Z,42.30
2022-08-18T07:21:49.741Z,42.50
2022-08-18T07:22:49.741Z,43.60
2022-08-18T07:24:07.681Z,43.90
2022-08-18T07:24:49.743Z,44.20
2022-08-18T07:25:49.747Z,43.00
2022-08-18T07:26:49.755Z,45.10
2022-08-18T07:27:49.778Z,42.10
2022-08-18T07:28:49.750Z,44.30
2022-08-18T07:29:49.758Z,45.20
2022-08-18T07:31:13.601Z,45.50
2022-08-18T07:31:49.758Z,44.60
2022-08-18T07:32:49.761Z,45.70
2022-08-18T07:33:49.762Z,46.50
2022-08-18T07:34:49.763Z,44.00
2022-08-18T07:35:49.772Z,44.30
2022-08-18T07:36:49.794Z,47.10
2022-08-18T07:37:49.782Z,46.30
2022-08-18T07:38:49.776Z,43.60
2022-08-18T07:39:49.824Z,44.50
2022-08-18T07:40:49.778Z,45.40
2022-08-18T07:41:49.781Z,46.10
2022-08-18T07:42:56.838Z,42.00
2022-08-18T07:43:49.783Z,42.40
2022-08-18T07:44:49.783Z,47.00
2022-08-18T07:45:49.788Z,46.40
2022-08-18T07:46:49.787Z,47.30
2022-08-18T07:47:49.792Z,49.50
2022-08-18T07:48:49.790Z,49.10
2022-08-18T07:50:16.446Z,48.40
2022-08-18T07:50:58.565Z,50.40
2022-08-18T07:51:53.417Z,48.30
2022-08-18T07:52:49.800Z,48.60
2022-08-18T07:53:54.823Z,47.30
2022-08-18T07:54:50.829Z,48.20
2022-08-18T07:55:49.807Z,47.30
2022-08-18T07:56:49.808Z,47.40
2022-08-18T07:57:49.809Z,48.50
2022-08-18T07:58:49.812Z,48.10
2022-08-18T07:59:49.812Z,48.70
2022-08-18T08:00:59.762Z,49.10
2022-08-18T08:01:49.866Z,48.50
2022-08-18T08:02:50.514Z,49.30
2022-08-18T08:03:49.821Z,50.30
2022-08-18T08:04:49.824Z,49.60
2022-08-18T08:05:49.824Z,48.10
2022-08-18T08:07:12.786Z,49.50
2022-08-18T08:07:49.930Z,47.50
2022-08-18T08:08:49.832Z,49.40
2022-08-18T08:09:52.038Z,49.60
2022-08-18T08:10:49.836Z,47.30
2022-08-18T08:11:49.839Z,47.40
2022-08-18T08:12:49.838Z,47.90
2022-08-18T08:13:55.636Z,45.80
2022-08-18T08:14:49.846Z,44.00
2022-08-18T08:15:49.848Z,45.40
2022-08-18T08:16:49.861Z,43.00
2022-08-18T08:17:49.847Z,44.40
2022-08-18T08:18:49.857Z,44.80
2022-08-18T08:20:00.486Z,47.90
2022-08-18T08:20:49.853Z,45.80
2022-08-18T08:21:53.072Z,44.20
2022-08-18T08:22:49.858Z,46.60
2022-08-18T08:23:49.858Z,47.10
2022-08-18T08:24:49.865Z,46.60
2022-08-18T08:25:49.876Z,43.90
2022-08-18T08:26:49.869Z,43.00
2022-08-18T08:27:49.904Z,44.90
2022-08-18T08:28:53.816Z,45.30
2022-08-18T08:29:49.877Z,43.30
2022-08-18T08:30:49.887Z,45.80
2022-08-18T08:31:49.875Z,44.20
2022-08-18T08:32:49.881Z,44.30
2022-08-18T08:33:49.880Z,43.50
2022-08-18T08:34:49.886Z,43.30
2022-08-18T08:35:50.893Z,40.60
2022-08-18T08:36:49.886Z,42.80
2022-08-18T08:37:50.036Z,43.80
2022-08-18T08:38:49.892Z,42.90
2022-08-18T08:39:50.007Z,42.10
2022-08-18T08:40:49.895Z,40.30
2022-08-18T08:41:49.895Z,42.60
2022-08-18T08:42:49.899Z,42.80
2022-08-18T08:43:49.902Z,42.90
2022-08-18T08:44:59.188Z,41.10
2022-08-18T08:45:49.907Z,39.40
2022-08-18T08:46:49.911Z,42.50
2022-08-18T08:47:49.913Z,42.90
2022-08-18T08:48:49.911Z,39.90
2022-08-18T08:49:54.737Z,39.10
2022-08-18T08:50:49.916Z,37.20
2022-08-18T08:51:49.919Z,36.50
2022-08-18T08:52:49.922Z,36.00
2022-08-18T08:53:49.921Z,34.10
2022-08-18T08:54:49.923Z,34.10
2022-08-18T08:55:49.925Z,34.60
2022-08-18T08:56:49.930Z,34.60
2022-08-18T08:57:49.930Z,34.60
2022-08-18T08:58:49.934Z,34.00
2022-08-18T08:59:49.935Z,33.70
2022-08-18T09:00:51.597Z,33.70
2022-08-18T09:01:49.948Z,33.20
2022-08-18T09:02:50.088Z,33.70
2022-08-18T09:03:49.943Z,34.90
2022-08-18T09:04:54.884Z,34.10
2022-08-18T09:05:54.701Z,33.00
2022-08-18T09:06:49.953Z,33.70
2022-08-18T09:07:49.952Z,34.70
2022-08-18T09:08:49.957Z,34.00
2022-08-18T09:09:49.957Z,34.90
2022-08-18T09:10:49.963Z,33.30
2022-08-18T09:11:49.960Z,32.60
2022-08-18T09:12:50.196Z,34.00
2022-08-18T09:13:49.964Z,34.90
2022-08-18T09:14:49.975Z,34.00
2022-08-18T09:15:49.973Z,36.10
2022-08-18T09:16:49.976Z,36.10
2022-08-18T09:17:49.975Z,33.10
2022-08-18T09:18:49.982Z,31.90
2022-08-18T09:19:49.982Z,31.80
2022-08-18T09:20:49.989Z,31.50
2022-08-18T09:21:49.987Z,33.00
2022-08-18T09:22:50.005Z,31.00
2022-08-18T09:23:49.991Z,30.10
2022-08-18T09:24:51.103Z,31.90
2022-08-18T09:25:50.001Z,31.00
2022-08-18T09:26:50.004Z,30.60
2022-08-18T09:28:11.577Z,31.40
2022-08-18T09:28:50.006Z,29.80
2022-08-18T09:29:50.035Z,30.60
2022-08-18T09:31:50.013Z,29.60
2022-08-18T09:32:50.155Z,29.50
2022-08-18T09:33:50.013Z,29.30
2022-08-18T09:34:50.017Z,29.50
2022-08-18T09:35:52.035Z,29.30
2022-08-18T09:36:50.033Z,28.20
2022-08-18T09:37:50.388Z,29.90
2022-08-18T09:38:50.033Z,28.00
2022-08-18T09:39:54.374Z,29.30
2022-08-18T09:41:50.037Z,28.20
2022-08-18T09:42:50.627Z,28.80
2022-08-18T09:43:50.040Z,30.50
2022-08-18T09:44:50.043Z,28.20
2022-08-18T09:45:50.046Z,30.00
2022-08-18T09:46:50.047Z,29.90
2022-08-18T09:47:50.048Z,28.00
2022-08-18T09:48:50.054Z,28.40
2022-08-18T09:49:51.337Z,32.40
2022-08-18T09:50:50.058Z,34.20
2022-08-18T09:51:50.058Z,33.70
2022-08-18T09:52:50.257Z,33.60
2022-08-18T09:53:50.064Z,33.10
2022-08-18T09:54:50.137Z,36.00
2022-08-18T09:55:51.952Z,35.00
2022-08-18T09:56:53.612Z,34.50
2022-08-18T09:57:50.075Z,35.60
2022-08-18T09:58:50.125Z,34.40
2022-08-18T09:59:50.357Z,35.30
2022-08-18T10:00:50.083Z,33.40
2022-08-18T10:01:52.540Z,33.90
2022-08-18T10:02:50.090Z,35.00
2022-08-18T10:03:50.092Z,34.40
2022-08-18T10:04:50.097Z,33.20
2022-08-18T10:05:50.094Z,31.90
2022-08-18T10:06:51.135Z,32.00
2022-08-18T10:07:50.184Z,32.10
2022-08-18T10:08:50.105Z,31.00
2022-08-18T10:09:50.103Z,30.20
2022-08-18T10:11:01.173Z,34.30
2022-08-18T10:11:50.869Z,29.30
2022-08-18T10:12:50.351Z,30.70
2022-08-18T10:13:50.114Z,30.10
2022-08-18T10:14:50.121Z,32.00
2022-08-18T10:15:50.118Z,30.90
2022-08-18T10:17:24.483Z,31.00
2022-08-18T10:17:50.419Z,29.90
2022-08-18T10:18:50.166Z,30.40
2022-08-18T10:19:50.141Z,30.30
2022-08-18T10:20:50.146Z,30.20
2022-08-18T10:21:50.133Z,30.10
2022-08-18T10:22:50.176Z,29.70
2022-08-18T10:23:58.439Z,28.50
2022-08-18T10:24:50.149Z,28.00
2022-08-18T10:25:50.157Z,31.50
2022-08-18T10:26:53.982Z,30.40
2022-08-18T10:27:50.152Z,29.80
2022-08-18T10:28:50.160Z,28.70
2022-08-18T10:29:50.160Z,29.90
2022-08-18T10:30:57.346Z,30.40
2022-08-18T10:31:50.160Z,29.30
2022-08-18T10:32:54.072Z,28.00
2022-08-18T10:33:50.268Z,29.10
2022-08-18T10:34:51.672Z,28.60
2022-08-18T10:35:50.170Z,27.30
2022-08-18T10:36:50.179Z,27.90
2022-08-18T10:37:50.810Z,27.60
2022-08-18T10:38:50.181Z,27.60
2022-08-18T10:39:50.401Z,25.60
2022-08-18T10:40:50.184Z,31.30
2022-08-18T10:41:50.194Z,30.70
2022-08-18T10:42:53.455Z,32.10
2022-08-18T10:43:55.773Z,31.10
2022-08-18T10:44:50.199Z,30.60
2022-08-18T10:46:23.105Z,29.00
2022-08-18T10:46:50.201Z,30.50
2022-08-18T10:47:50.201Z,30.60
2022-08-18T10:48:50.230Z,30.00
2022-08-18T10:49:50.208Z,29.70
2022-08-18T10:50:50.215Z,30.70
2022-08-18T10:52:00.647Z,28.90
2022-08-18T10:52:58.833Z,29.30
2022-08-18T10:53:50.736Z,29.00
2022-08-18T10:54:50.972Z,30.40
2022-08-18T10:55:50.427Z,29.30
2022-08-18T10:56:50.235Z,27.90
2022-08-18T10:57:50.235Z,27.20
2022-08-18T10:58:50.235Z,27.50
2022-08-18T10:59:54.404Z,26.90
2022-08-18T11:00:50.241Z,26.80
2022-08-18T11:01:50.243Z,26.30
2022-08-18T11:02:50.849Z,24.50
2022-08-18T11:03:55.530Z,24.90
2022-08-18T11:04:58.934Z,24.50
2022-08-18T11:05:50.256Z,23.30
2022-08-18T11:06:50.258Z,24.00
2022-08-18T11:07:53.379Z,23.00
2022-08-18T11:08:54.856Z,22.50
2022-08-18T11:09:57.281Z,22.10
2022-08-18T11:11:52.722Z,22.30
2022-08-18T11:12:50.276Z,21.40
2022-08-18T11:13:50.275Z,20.40
2022-08-18T11:14:50.360Z,20.80
2022-08-18T11:15:50.561Z,21.30
2022-08-18T11:16:50.286Z,20.30
2022-08-18T11:17:50.285Z,20.70
2022-08-18T11:18:52.869Z,20.40
2022-08-18T11:19:50.759Z,21.70
2022-08-18T11:20:50.297Z,21.00
2022-08-18T11:21:51.458Z,20.90
2022-08-18T11:22:50.542Z,19.90
2022-08-18T11:23:50.302Z,19.40
2022-08-18T11:24:50.305Z,20.10
2022-08-18T11:25:50.310Z,19.40
2022-08-18T11:26:53.104Z,19.60
2022-08-18T11:27:50.457Z,18.50
2022-08-18T11:28:50.340Z,18.40
2022-08-18T11:29:50.318Z,19.90
2022-08-18T11:30:50.326Z,19.00
2022-08-18T11:31:52.859Z,18.40
2022-08-18T11:32:52.185Z,19.80
2022-08-18T11:33:51.393Z,19.30
2022-08-18T11:34:53.246Z,19.70
2022-08-18T11:35:50.335Z,18.30
2022-08-18T11:36:50.384Z,16.80
2022-08-18T11:37:53.299Z,17.40
2022-08-18T11:38:50.346Z,18.40
2022-08-18T11:39:50.443Z,19.60
2022-08-18T11:41:11.397Z,19.00
2022-08-18T11:41:50.582Z,18.10
2022-08-18T11:42:50.675Z,18.60
2022-08-18T11:43:50.579Z,18.30
2022-08-18T11:44:50.362Z,16.70
2022-08-18T11:45:50.378Z,16.30
2022-08-18T11:46:52.133Z,16.80
2022-08-18T11:47:50.370Z,17.90
2022-08-18T11:48:52.454Z,16.70
2022-08-18T11:49:50.374Z,16.00
2022-08-18T11:50:54.348Z,16.00
2022-08-18T11:51:50.385Z,16.10
2022-08-18T11:52:53.456Z,15.40
2022-08-18T11:53:57.432Z,19.20
2022-08-18T11:54:54.143Z,19.80
2022-08-18T11:55:53.303Z,20.20
2022-08-18T11:56:50.401Z,20.10
2022-08-18T11:57:50.409Z,20.90
2022-08-18T11:58:50.749Z,20.80
2022-08-18T11:59:54.421Z,21.40
2022-08-18T12:00:50.410Z,20.90
2022-08-18T12:02:50.415Z,20.90
2022-08-18T12:03:50.413Z,21.00
2022-08-18T12:04:50.854Z,21.50
2022-08-18T12:05:55.818Z,19.80
2022-08-18T12:06:50.427Z,20.80
2022-08-18T12:08:57.667Z,22.60
2022-08-18T12:10:51.035Z,22.70
2022-08-18T12:11:50.438Z,23.60
2022-08-18T12:13:50.442Z,22.70
2022-08-18T12:14:50.447Z,23.30
2022-08-18T12:15:50.452Z,23.90
2022-08-18T12:16:50.784Z,24.10
2022-08-18T12:17:52.374Z,24.80
2022-08-18T12:18:50.455Z,25.40
2022-08-18T12:19:50.460Z,24.90
2022-08-18T12:20:51.274Z,24.30
2022-08-18T12:21:50.467Z,24.70
2022-08-18T12:22:50.473Z,24.20
2022-08-18T12:23:52.571Z,24.00
2022-08-18T12:24:50.527Z,24.60
2022-08-18T12:25:51.841Z,24.00
2022-08-18T12:26:50.481Z,22.80
2022-08-18T12:27:50.482Z,23.30
2022-08-18T12:28:50.489Z,22.30
2022-08-18T12:29:50.704Z,24.80
2022-08-18T12:30:57.118Z,23.60
2022-08-18T12:31:50.499Z,23.10
2022-08-18T12:33:00.975Z,24.10
2022-08-18T12:34:00.794Z,24.60
2022-08-18T12:34:50.505Z,22.70
2022-08-18T12:35:50.530Z,22.60
2022-08-18T12:36:50.513Z,22.00
2022-08-18T12:38:00.385Z,22.50
2022-08-18T12:38:52.118Z,23.90
2022-08-18T12:39:50.596Z,24.20
2022-08-18T12:40:50.520Z,23.30
2022-08-18T12:41:50.524Z,22.90
2022-08-18T12:42:50.612Z,23.50
2022-08-18T12:43:58.656Z,25.10
2022-08-18T12:44:50.530Z,23.30
2022-08-18T12:45:50.536Z,22.90
2022-08-18T12:46:50.535Z,23.70
2022-08-18T12:47:50.542Z,22.80
2022-08-18T12:48:50.543Z,22.00
2022-08-18T12:49:50.783Z,23.20
2022-08-18T12:51:50.735Z,24.80
2022-08-18T12:52:50.609Z,24.10
2022-08-18T12:53:59.387Z,24.50
2022-08-18T12:54:55.766Z,24.30
2022-08-18T12:55:50.574Z,23.40
2022-08-18T12:56:50.568Z,23.10
2022-08-18T12:57:50.577Z,22.60
2022-08-18T12:58:50.573Z,23.30
2022-08-18T12:59:50.578Z,22.40
2022-08-18T13:00:51.504Z,22.20